createdAt,value
2022-10-23T00:01:44.007Z,11.17
2022-10-23T00:04:20.844Z,10.96
2022-10-23T00:06:49.506Z,10.99
2022-10-23T00:09:19.825Z,11.18
2022-10-23T00:11:48.513Z,11.80
2022-10-23T00:14:18.350Z,11.58
2022-10-23T00:16:46.781Z,11.09
2022-10-23T00:19:15.146Z,11.44
2022-10-23T00:21:43.587Z,11.26
2022-10-23T00:24:12.135Z,10.88
2022-10-23T00:26:40.984Z,11.09
2022-10-23T00:29:10.376Z,11.36
2022-10-23T00:31:38.926Z,10.65
2022-10-23T00:34:08.868Z,10.96
2022-10-23T00:36:37.741Z,10.90
2022-10-23T00:39:06.276Z,11.61
2022-10-23T00:41:35.289Z,11.50
2022-10-23T00:44:09.430Z,11.77
2022-10-23T00:46:38.936Z,11.55
2022-10-23T00:49:07.388Z,11.28
2022-10-23T00:51:41.746Z,11.24
2022-10-23T00:54:23.350Z,10.74
2022-10-23T00:56:57.029Z,11.02
2022-10-23T00:59:27.379Z,11.37
2022-10-23T01:01:56.101Z,11.43
2022-10-23T01:04:25.230Z,10.85
2022-10-23T01:07:12.141Z,11.65
2022-10-23T01:09:44.811Z,11.82
2022-10-23T01:12:45.323Z,11.67
2022-10-23T01:15:38.438Z,11.91
2022-10-23T01:18:29.919Z,11.92
2022-10-23T01:21:02.781Z,11.84
2022-10-23T01:24:02.310Z,11.43
2022-10-23T01:27:02.116Z,11.24
2022-10-23T01:29:36.003Z,11.47
2022-10-23T01:32:17.314Z,11.45
2022-10-23T01:35:05.723Z,11.27
2022-10-23T01:37:44.163Z,11.82
2022-10-23T01:40:46.687Z,12.28
2022-10-23T01:43:20.610Z,12.10
2022-10-23T01:45:55.818Z,12.03
2022-10-23T01:48:27.927Z,12.50
2022-10-23T01:50:58.006Z,12.52
2022-10-23T01:53:28.150Z,12.73
2022-10-23T01:55:57.173Z,12.51
2022-10-23T01:58:26.207Z,12.58
2022-10-23T02:00:57.147Z,12.68
2022-10-23T02:03:25.648Z,12.89
2022-10-23T02:05:54.000Z,13.02
2022-10-23T02:08:22.648Z,12.93
2022-10-23T02:11:11.567Z,12.96
2022-10-23T02:13:51.012Z,12.95
2022-10-23T02:16:41.158Z,13.11
2022-10-23T02:19:26.069Z,12.91
2022-10-23T02:22:23.948Z,13.17
2022-10-23T02:25:00.601Z,13.45
2022-10-23T02:27:37.751Z,13.61
2022-10-23T02:30:10.242Z,13.09
2022-10-23T02:32:45.526Z,13.18
2022-10-23T02:35:15.962Z,13.34
2022-10-23T02:37:44.859Z,13.39
2022-10-23T02:40:14.628Z,13.46
2022-10-23T02:43:11.378Z,13.67
2022-10-23T02:46:00.472Z,13.69
2022-10-23T02:49:04.661Z,13.77
2022-10-23T02:52:11.594Z,13.61
2022-10-23T02:54:53.547Z,13.91
2022-10-23T02:57:28.683Z,13.99
2022-10-23T03:00:11.768Z,13.47
2022-10-23T03:02:54.187Z,13.66
2022-10-23T03:05:38.842Z,13.28
2022-10-23T03:08:09.268Z,13.70
2022-10-23T03:10:38.063Z,13.76
2022-10-23T03:13:08.059Z,13.36
2022-10-23T03:15:42.904Z,13.40
2022-10-23T03:18:15.223Z,13.38
2022-10-23T03:20:48.502Z,13.26
2022-10-23T03:23:17.846Z,13.24
2022-10-23T03:25:46.263Z,12.74
2022-10-23T03:28:26.123Z,12.87
2022-10-23T03:30:54.479Z,12.90
2022-10-23T03:33:23.043Z,13.16
2022-10-23T03:35:51.443Z,13.20
2022-10-23T03:38:19.893Z,12.75
2022-10-23T03:40:48.295Z,13.19
2022-10-23T03:43:16.782Z,13.05
2022-10-23T03:45:45.196Z,12.25
2022-10-23T03:48:16.748Z,12.66
2022-10-23T03:50:45.953Z,12.79
2022-10-23T03:53:14.965Z,12.78
2022-10-23T03:55:45.112Z,12.78
2022-10-23T03:58:13.511Z,12.78
2022-10-23T04:03:15.166Z,12.54
2022-10-23T04:05:43.710Z,12.49
2022-10-23T04:08:14.173Z,12.24
2022-10-23T04:10:47.420Z,12.07
2022-10-23T04:13:15.786Z,11.23
2022-10-23T04:15:51.243Z,11.03
2022-10-23T04:18:19.751Z,11.07
2022-10-23T04:20:49.524Z,11.14
2022-10-23T04:23:18.004Z,11.21
2022-10-23T04:28:25.929Z,11.22
2022-10-23T04:30:54.514Z,10.76
2022-10-23T04:33:23.716Z,10.82
2022-10-23T04:35:53.101Z,10.85
2022-10-23T04:38:21.441Z,11.31
2022-10-23T04:40:52.089Z,11.31
2022-10-23T04:43:24.134Z,11.15
2022-10-23T04:45:52.549Z,11.03
2022-10-23T04:48:25.582Z,10.88
2022-10-23T04:51:15.245Z,11.29
2022-10-23T04:54:01.141Z,11.41
2022-10-23T04:56:43.923Z,11.14
2022-10-23T04:59:20.861Z,11.36
2022-10-23T05:01:49.441Z,10.96
2022-10-23T05:04:19.156Z,11.89
2022-10-23T05:07:06.200Z,11.84
2022-10-23T05:09:48.605Z,11.77
2022-10-23T05:12:40.626Z,11.55
2022-10-23T05:15:09.443Z,11.70
2022-10-23T05:17:39.016Z,11.99
2022-10-23T05:20:10.086Z,12.13
2022-10-23T05:22:42.218Z,12.31
2022-10-23T05:25:13.693Z,11.97
2022-10-23T05:27:47.291Z,12.12
2022-10-23T05:30:17.556Z,12.02
2022-10-23T05:32:51.143Z,12.11
2022-10-23T05:35:23.195Z,12.13
2022-10-23T05:37:53.869Z,12.18
2022-10-23T05:40:25.285Z,12.19
2022-10-23T05:43:05.043Z,12.43
2022-10-23T05:45:48.139Z,12.57
2022-10-23T05:48:50.375Z,12.47
2022-10-23T05:51:57.351Z,12.81
2022-10-23T05:54:41.348Z,11.96
2022-10-23T05:57:23.843Z,12.86
2022-10-23T05:59:54.140Z,13.92
2022-10-23T06:02:45.673Z,14.80
2022-10-23T06:05:37.183Z,16.31
2022-10-23T06:08:35.158Z,17.04
2022-10-23T06:11:11.603Z,17.58
2022-10-23T06:13:43.408Z,17.70
2022-10-23T06:16:16.506Z,17.69
2022-10-23T06:18:46.382Z,18.23
2022-10-23T06:21:17.454Z,18.93
2022-10-23T06:23:48.593Z,19.12
2022-10-23T06:26:52.146Z,18.64
2022-10-23T06:29:35.203Z,18.56
2022-10-23T06:32:04.494Z,17.51
2022-10-23T06:34:33.204Z,18.43
2022-10-23T06:37:02.105Z,19.10
2022-10-23T06:39:40.812Z,20.52
2022-10-23T06:42:21.175Z,22.00
2022-10-23T06:44:55.303Z,23.18
2022-10-23T06:47:52.598Z,24.15
2022-10-23T06:50:39.307Z,24.67
2022-10-23T06:53:14.047Z,24.81
2022-10-23T06:55:51.519Z,25.94
2022-10-23T06:58:23.764Z,26.82
2022-10-23T07:01:10.459Z,27.51
2022-10-23T07:03:42.736Z,27.11
2022-10-23T07:06:11.408Z,28.11
2022-10-23T07:08:40.387Z,28.33
2022-10-23T07:11:34.574Z,29.07
2022-10-23T07:14:04.006Z,29.00
2022-10-23T07:16:34.493Z,28.82
2022-10-23T07:19:07.134Z,28.82
2022-10-23T07:21:57.835Z,27.35
2022-10-23T07:24:37.601Z,28.12
2022-10-23T07:27:15.139Z,28.66
2022-10-23T07:29:45.194Z,28.82
2022-10-23T07:32:13.982Z,29.08
2022-10-23T07:35:02.653Z,29.38
2022-10-23T07:37:34.541Z,29.71
2022-10-23T07:40:06.701Z,30.19
2022-10-23T07:42:43.640Z,30.79
2022-10-23T07:45:12.990Z,30.88
2022-10-23T07:47:44.917Z,31.45
2022-10-23T07:50:16.593Z,31.55
2022-10-23T07:52:45.448Z,31.88
2022-10-23T07:55:19.245Z,32.61
2022-10-23T07:57:51.512Z,32.64
2022-10-23T08:00:31.557Z,33.06
2022-10-23T08:03:13.129Z,33.29
2022-10-23T08:05:42.472Z,33.74
2022-10-23T08:08:11.278Z,33.50
2022-10-23T08:10:42.030Z,32.99
2022-10-23T08:13:15.566Z,32.65
2022-10-23T08:15:56.188Z,31.07
2022-10-23T08:18:45.731Z,29.77
2022-10-23T08:21:14.382Z,27.58
2022-10-23T08:23:43.856Z,26.68
2022-10-23T08:26:13.814Z,27.51
2022-10-23T08:28:42.974Z,27.55
2022-10-23T08:31:14.143Z,27.45
2022-10-23T08:36:24.624Z,26.01
2022-10-23T08:38:57.856Z,23.99
2022-10-23T08:41:44.209Z,24.61
2022-10-23T08:44:40.640Z,24.70
2022-10-23T08:47:34.618Z,24.83
2022-10-23T08:50:25.664Z,24.46
2022-10-23T08:53:16.918Z,23.73
2022-10-23T08:56:01.657Z,23.11
2022-10-23T09:01:48.489Z,22.37
2022-10-23T09:04:18.294Z,22.53
2022-10-23T09:07:14.562Z,21.97
2022-10-23T09:09:56.994Z,22.32
2022-10-23T09:12:26.367Z,22.74
2022-10-23T09:15:17.717Z,22.33
2022-10-23T09:17:46.686Z,21.60
2022-10-23T09:20:23.741Z,21.24
2022-10-23T09:22:59.725Z,22.06
2022-10-23T09:25:31.506Z,22.38
2022-10-23T09:28:04.465Z,22.41
2022-10-23T09:30:42.003Z,21.53
2022-10-23T09:33:21.116Z,21.49
2022-10-23T09:36:00.001Z,21.90
2022-10-23T09:38:39.512Z,21.36
2022-10-23T09:41:11.836Z,22.32
2022-10-23T09:43:48.827Z,22.26
2022-10-23T09:46:21.537Z,22.64
2022-10-23T09:48:59.834Z,22.27
2022-10-23T09:51:31.061Z,22.40
2022-10-23T09:54:00.128Z,22.41
2022-10-23T09:56:36.858Z,22.43
2022-10-23T09:59:27.136Z,21.36
2022-10-23T10:02:04.835Z,22.24
2022-10-23T10:04:57.447Z,21.08
2022-10-23T10:07:29.413Z,22.12
2022-10-23T10:09:59.865Z,22.50
2022-10-23T10:12:32.439Z,22.44
2022-10-23T10:15:22.444Z,22.15
2022-10-23T10:18:14.787Z,22.27
2022-10-23T10:20:55.346Z,22.11
2022-10-23T10:23:36.109Z,22.41
2022-10-23T10:26:36.880Z,22.17
2022-10-23T10:29:46.149Z,22.66
2022-10-23T10:32:33.940Z,22.92
2022-10-23T10:35:16.564Z,23.03
2022-10-23T10:38:07.670Z,22.74
2022-10-23T10:40:41.841Z,22.29
2022-10-23T10:43:23.757Z,22.80
2022-10-23T10:46:06.587Z,22.97
2022-10-23T10:48:41.151Z,22.30
2022-10-23T10:52:02.512Z,23.07
2022-10-23T10:54:46.804Z,22.62
2022-10-23T10:57:39.769Z,22.80
2022-10-23T11:00:19.306Z,23.31
2022-10-23T11:03:26.223Z,23.07
2022-10-23T11:05:56.730Z,23.02
2022-10-23T11:08:44.550Z,23.24
2022-10-23T11:11:38.790Z,23.32
2022-10-23T11:14:23.993Z,22.80
2022-10-23T11:17:06.877Z,22.76
2022-10-23T11:19:50.404Z,22.84
2022-10-23T11:22:26.985Z,23.60
2022-10-23T11:25:42.629Z,23.05
2022-10-23T11:28:17.004Z,22.81
2022-10-23T11:31:18.803Z,23.19
2022-10-23T11:33:59.994Z,23.26
2022-10-23T11:36:50.015Z,22.91
2022-10-23T11:39:29.992Z,22.63
2022-10-23T11:42:14.624Z,22.62
2022-10-23T11:44:49.431Z,22.72
2022-10-23T11:47:40.597Z,21.83
2022-10-23T11:50:12.026Z,21.95
2022-10-23T11:53:26.734Z,22.18
2022-10-23T11:56:02.297Z,22.82
2022-10-23T11:58:43.070Z,22.65
2022-10-23T12:01:28.919Z,22.76
2022-10-23T12:04:10.353Z,22.76
2022-10-23T12:06:57.656Z,22.27
2022-10-23T12:09:40.825Z,22.13
2022-10-23T12:12:09.286Z,21.84
2022-10-23T12:14:54.916Z,22.12
2022-10-23T12:17:29.453Z,21.75
2022-10-23T12:20:20.768Z,21.88
2022-10-23T12:22:51.573Z,21.53
2022-10-23T12:25:50.612Z,21.99
2022-10-23T12:28:39.771Z,21.50
2022-10-23T12:31:27.188Z,21.69
2022-10-23T12:34:10.457Z,21.52
2022-10-23T12:37:08.176Z,21.59
2022-10-23T12:39:39.365Z,21.23
2022-10-23T12:42:21.602Z,21.38
2022-10-23T12:45:26.912Z,21.18
2022-10-23T12:47:57.895Z,21.30
2022-10-23T12:50:42.888Z,21.05
2022-10-23T12:53:16.242Z,20.77
2022-10-23T12:55:56.551Z,20.58
2022-10-23T12:58:30.989Z,20.89
2022-10-23T13:01:05.037Z,21.32
2022-10-23T13:03:35.522Z,20.98
2022-10-23T13:06:06.362Z,20.67
2022-10-23T13:08:45.163Z,20.77
2022-10-23T13:11:43.284Z,20.74
2022-10-23T13:14:45.209Z,20.61
2022-10-23T13:17:17.066Z,21.07
2022-10-23T13:19:45.446Z,20.64
2022-10-23T13:22:21.408Z,21.27
2022-10-23T13:24:55.519Z,21.27
2022-10-23T13:27:36.977Z,20.64
2022-10-23T13:30:09.903Z,20.88
2022-10-23T13:32:39.459Z,21.04
2022-10-23T13:35:22.162Z,20.49
2022-10-23T13:37:52.803Z,20.43
2022-10-23T13:40:26.389Z,20.60
2022-10-23T13:42:56.186Z,20.55
2022-10-23T13:45:25.846Z,20.45
2022-10-23T13:47:57.390Z,20.46
2022-10-23T13:50:25.887Z,21.05
2022-10-23T13:52:54.234Z,21.08
2022-10-23T13:55:26.140Z,21.04
2022-10-23T13:57:56.923Z,21.32
2022-10-23T14:00:25.444Z,20.98
2022-10-23T14:05:23.889Z,21.12
2022-10-23T14:07:52.715Z,20.99
2022-10-23T14:10:26.912Z,21.45
2022-10-23T14:12:56.506Z,21.29
2022-10-23T14:15:25.202Z,21.16
2022-10-23T14:18:04.566Z,21.12
2022-10-23T14:20:38.932Z,21.30
2022-10-23T14:23:08.193Z,21.33
2022-10-23T14:25:37.933Z,20.55
2022-10-23T14:28:10.224Z,20.88
2022-10-23T14:30:41.695Z,21.04
2022-10-23T14:33:10.813Z,21.11
2022-10-23T14:35:43.686Z,21.37
2022-10-23T14:38:14.456Z,21.30
2022-10-23T14:40:43.075Z,21.30
2022-10-23T14:43:14.776Z,21.42
2022-10-23T14:45:45.148Z,21.01
2022-10-23T14:48:14.286Z,20.79
2022-10-23T14:50:49.479Z,21.02
2022-10-23T14:53:18.100Z,21.15
2022-10-23T14:55:48.330Z,21.11
2022-10-23T14:58:17.880Z,20.75
2022-10-23T15:01:06.419Z,20.30
2022-10-23T15:03:37.039Z,20.51
2022-10-23T15:06:16.020Z,20.38
2022-10-23T15:08:53.424Z,20.60
2022-10-23T15:11:25.612Z,20.04
2022-10-23T15:13:57.186Z,20.02
2022-10-23T15:16:26.638Z,19.47
2022-10-23T15:18:55.270Z,19.98
2022-10-23T15:21:26.288Z,19.56
2022-10-23T15:26:45.622Z,19.38
2022-10-23T15:29:15.305Z,18.89
2022-10-23T15:31:47.482Z,18.82
2022-10-23T15:34:20.314Z,18.97
2022-10-23T15:36:50.859Z,18.73
2022-10-23T15:39:21.678Z,18.69
2022-10-23T15:41:56.753Z,18.88
2022-10-23T15:44:28.522Z,17.87
2022-10-23T15:46:58.985Z,17.83
2022-10-23T15:49:31.474Z,18.00
2022-10-23T15:52:02.923Z,17.61
2022-10-23T15:54:34.845Z,17.90
2022-10-23T15:57:05.262Z,17.90
2022-10-23T15:59:43.246Z,17.93
2022-10-23T16:02:15.043Z,18.04
2022-10-23T16:04:45.210Z,18.09
2022-10-23T16:07:15.576Z,17.27
2022-10-23T16:09:45.259Z,17.39
2022-10-23T16:12:14.228Z,17.47
2022-10-23T16:14:44.226Z,16.92
2022-10-23T16:17:21.302Z,16.92
2022-10-23T16:22:41.389Z,16.59
2022-10-23T16:25:14.803Z,16.49
2022-10-23T16:28:02.760Z,16.11
2022-10-23T16:30:36.046Z,15.84
2022-10-23T16:33:10.827Z,15.70
2022-10-23T16:35:54.444Z,15.99
2022-10-23T16:38:42.112Z,16.31
2022-10-23T16:41:12.316Z,16.03
2022-10-23T16:47:08.017Z,15.66
2022-10-23T16:49:44.887Z,15.61
2022-10-23T16:52:17.273Z,15.46
2022-10-23T16:54:54.184Z,15.40
2022-10-23T16:57:38.561Z,15.40
2022-10-23T17:00:46.035Z,15.66
2022-10-23T17:03:18.847Z,15.72
2022-10-23T17:05:51.014Z,15.64
2022-10-23T17:08:21.558Z,15.52
2022-10-23T17:11:05.061Z,15.40
2022-10-23T17:13:36.822Z,14.81
2022-10-23T17:16:27.590Z,14.39
2022-10-23T17:19:00.006Z,14.58
2022-10-23T17:21:41.137Z,14.46
2022-10-23T17:24:15.517Z,14.36
2022-10-23T17:29:52.309Z,14.35
2022-10-23T17:32:26.657Z,14.13
2022-10-23T17:35:13.450Z,14.26
2022-10-23T17:37:48.801Z,14.09
2022-10-23T17:40:31.420Z,13.98
2022-10-23T17:43:20.769Z,13.96
2022-10-23T17:45:55.334Z,13.96
2022-10-23T17:48:35.858Z,14.18
2022-10-23T17:51:14.244Z,13.99
2022-10-23T17:53:53.143Z,14.25
2022-10-23T17:56:35.394Z,13.95
2022-10-23T17:59:11.907Z,14.31
2022-10-23T18:01:44.246Z,14.38
2022-10-23T18:04:20.094Z,14.51
2022-10-23T18:06:56.325Z,14.75
2022-10-23T18:09:26.960Z,14.69
2022-10-23T18:11:59.944Z,14.95
2022-10-23T18:14:37.450Z,15.15
2022-10-23T18:17:24.602Z,14.85
2022-10-23T18:19:58.333Z,15.06
2022-10-23T18:22:46.801Z,15.28
2022-10-23T18:25:17.802Z,14.95
2022-10-23T18:28:15.925Z,14.98
2022-10-23T18:30:57.045Z,14.86
2022-10-23T18:33:27.622Z,14.94
2022-10-23T18:36:04.918Z,14.95
2022-10-23T18:38:44.291Z,14.86
2022-10-23T18:41:21.772Z,14.52
2022-10-23T18:43:58.166Z,14.67
2022-10-23T18:46:55.177Z,14.31
2022-10-23T18:49:38.862Z,14.47
2022-10-23T18:52:33.878Z,14.08
2022-10-23T18:55:29.574Z,14.31
2022-10-23T18:58:18.182Z,14.45
2022-10-23T19:00:49.333Z,14.25
2022-10-23T19:03:25.372Z,14.04
2022-10-23T19:06:02.865Z,14.01
2022-10-23T19:08:40.206Z,13.57
2022-10-23T19:11:11.204Z,13.77
2022-10-23T19:13:55.440Z,13.68
2022-10-23T19:17:08.305Z,13.15
2022-10-23T19:20:08.815Z,13.13
2022-10-23T19:22:51.116Z,13.39
2022-10-23T19:25:29.486Z,12.57
2022-10-23T19:28:26.152Z,13.02
2022-10-23T19:30:56.033Z,13.08
2022-10-23T19:33:24.514Z,12.14
2022-10-23T19:35:53.263Z,11.88
2022-10-23T19:38:24.851Z,11.62
2022-10-23T19:40:55.682Z,11.94
2022-10-23T19:43:26.634Z,11.80
2022-10-23T19:45:55.116Z,11.89
2022-10-23T19:48:24.675Z,11.92
2022-10-23T19:50:54.301Z,12.44
2022-10-23T19:53:25.090Z,12.70
2022-10-23T19:56:06.421Z,12.50
2022-10-23T19:58:38.380Z,12.55
2022-10-23T20:01:11.434Z,12.58
2022-10-23T20:03:41.047Z,12.58
2022-10-23T20:06:11.055Z,12.50
2022-10-23T20:08:40.073Z,11.92
2022-10-23T20:11:08.738Z,12.02
2022-10-23T20:13:38.043Z,11.60
2022-10-23T20:16:07.174Z,11.43
2022-10-23T20:18:36.747Z,11.28
2022-10-23T20:21:08.341Z,11.73
2022-10-23T20:23:37.379Z,11.90
2022-10-23T20:26:07.448Z,11.91
2022-10-23T20:28:36.879Z,11.97
2022-10-23T20:31:09.448Z,11.53
2022-10-23T20:33:38.779Z,11.20
2022-10-23T20:36:08.585Z,11.44
2022-10-23T20:38:37.150Z,11.69
2022-10-23T20:41:06.217Z,11.72
2022-10-23T20:43:34.614Z,11.56
2022-10-23T20:46:06.736Z,11.75
2022-10-23T20:48:40.233Z,11.45
2022-10-23T20:51:10.778Z,10.83
2022-10-23T20:53:40.994Z,11.07
2022-10-23T20:56:20.575Z,11.26
2022-10-23T20:58:49.504Z,10.57
2022-10-23T21:01:18.193Z,11.09
2022-10-23T21:03:51.244Z,11.18
2022-10-23T21:06:19.684Z,10.73
2022-10-23T21:08:48.798Z,10.98
2022-10-23T21:11:18.048Z,10.93
2022-10-23T21:13:47.464Z,10.79
2022-10-23T21:16:17.271Z,10.23
2022-10-23T21:18:46.838Z,10.75
2022-10-23T21:21:17.720Z,11.07
2022-10-23T21:23:47.439Z,11.13
2022-10-23T21:26:16.119Z,10.92
2022-10-23T21:28:55.664Z,11.05
2022-10-23T21:31:35.176Z,10.97
2022-10-23T21:34:03.961Z,10.36
2022-10-23T21:36:34.332Z,10.42
2022-10-23T21:39:09.649Z,10.77
2022-10-23T21:41:38.331Z,10.20
2022-10-23T21:44:07.008Z,10.10
2022-10-23T21:46:36.527Z,10.14
2022-10-23T21:49:05.137Z,10.75
2022-10-23T21:51:40.295Z,10.49
2022-10-23T21:54:11.284Z,10.71
2022-10-23T21:56:45.597Z,10.68
2022-10-23T21:59:21.639Z,10.95
2022-10-23T22:01:50.240Z,10.08
2022-10-23T22:04:19.439Z,10.19
2022-10-23T22:06:49.096Z,9.58
2022-10-23T22:09:19.805Z,9.82
2022-10-23T22:11:54.489Z,10.39
2022-10-23T22:14:23.110Z,10.47
2022-10-23T22:16:53.300Z,10.10
2022-10-23T22:19:22.292Z,10.17
2022-10-23T22:21:50.913Z,10.63
2022-10-23T22:24:19.327Z,9.92
2022-10-23T22:26:50.625Z,10.19
2022-10-23T22:29:21.545Z,10.00
2022-10-23T22:31:50.285Z,10.03
2022-10-23T22:34:34.137Z,9.40
2022-10-23T22:37:12.856Z,9.89
2022-10-23T22:39:41.386Z,9.16
2022-10-23T22:42:09.745Z,9.58
2022-10-23T22:44:38.145Z,9.98
2022-10-23T22:47:06.668Z,9.18
2022-10-23T22:49:35.153Z,8.97
2022-10-23T22:52:04.068Z,9.10
2022-10-23T22:54:32.525Z,9.58
2022-10-23T22:57:02.078Z,9.90
2022-10-23T22:59:31.066Z,9.51
2022-10-23T23:01:59.957Z,9.80
2022-10-23T23:04:43.547Z,8.87
2022-10-23T23:07:12.557Z,8.95
2022-10-23T23:09:42.603Z,8.35
2022-10-23T23:12:12.852Z,8.75
2022-10-23T23:14:41.405Z,8.45
2022-10-23T23:17:09.932Z,8.45
2022-10-23T23:19:38.513Z,8.51
2022-10-23T23:22:06.842Z,9.06
2022-10-23T23:24:35.361Z,8.82
2022-10-23T23:27:03.770Z,8.91
2022-10-23T23:29:32.150Z,9.41
2022-10-23T23:32:00.606Z,9.20
2022-10-23T23:34:29.082Z,8.54
2022-10-23T23:36:57.579Z,8.33
2022-10-23T23:39:26.584Z,9.05
2022-10-23T23:41:55.006Z,9.36
2022-10-23T23:44:23.430Z,8.91
2022-10-23T23:46:52.203Z,8.54
2022-10-23T23:49:20.613Z,8.87
2022-10-23T23:51:49.433Z,9.17
2022-10-23T23:54:18.458Z,9.43
2022-10-23T23:56:46.858Z,8.59
2022-10-23T23:59:15.213Z,9.03
